Time;durP1;ratioP1;P1;durP2;ratioP2;P2;SDS_P1;SDS_P2;PMS_P1;PMS_P2;Temp;Humidity;BMP_temperature;BMP_pressure;BME280_temperature;BME280_humidity;BME280_pressure;Samples;Min_cycle;Max_cycle;Signal;HPM_P1;HPM_P2
2023/12/08 00:00:46;;;;;;;53.63;18.55;;;;;;;-1.51;100.00;98433.25;3154516;23;20069;-90
2023/12/08 00:02:17;;;;;;;47.22;16.95;;;;;;;-1.56;100.00;98429.72;3169189;23;20521;-90
2023/12/08 00:03:33;;;;;;;56.83;18.30;;;;;;;-1.54;100.00;98429.75;3169110;23;20028;-89
2023/12/08 00:04:48;;;;;;;47.95;18.63;;;;;;;-1.54;100.00;98432.31;3169087;23;20050;-89
2023/12/08 00:06:06;;;;;;;59.58;18.95;;;;;;;-1.55;100.00;98428.91;3152969;23;20027;-89
2023/12/08 00:07:22;;;;;;;45.67;18.42;;;;;;;-1.69;100.00;98425.19;3159825;23;20453;-90
2023/12/08 00:08:37;;;;;;;59.47;20.02;;;;;;;-1.82;100.00;98427.47;3163905;23;20076;-88
2023/12/08 00:09:53;;;;;;;95.93;23.70;;;;;;;-1.92;100.00;98417.84;3153417;23;20037;-90
2023/12/08 00:11:11;;;;;;;64.93;20.48;;;;;;;-1.92;100.00;98417.84;3144280;23;20079;-90
2023/12/08 00:12:26;;;;;;;77.68;24.52;;;;;;;-1.94;100.00;98417.84;3144346;23;20030;-90
2023/12/08 00:13:42;;;;;;;68.88;23.50;;;;;;;-1.82;100.00;98417.22;3159593;23;20018;-90
2023/12/08 00:14:57;;;;;;;92.38;24.75;;;;;;;-1.77;100.00;98410.47;3152969;23;20022;-89
2023/12/08 00:16:13;;;;;;;84.47;23.80;;;;;;;-1.74;100.00;98412.25;3144623;23;20463;-89
2023/12/08 00:17:29;;;;;;;69.47;21.52;;;;;;;-1.69;100.00;98413.19;3144691;23;20085;-89
2023/12/08 00:18:44;;;;;;;71.72;22.02;;;;;;;-1.79;100.00;98413.84;3155342;23;20026;-90
2023/12/08 00:20:00;;;;;;;83.72;23.58;;;;;;;-1.58;100.00;98416.84;3167746;23;20018;-92
2023/12/08 00:21:18;;;;;;;75.13;22.17;;;;;;;-1.68;100.00;98414.91;3169244;23;20033;-92
2023/12/08 00:22:34;;;;;;;77.65;21.95;;;;;;;-1.80;100.00;98418.09;3169266;23;20089;-92
2023/12/08 00:23:50;;;;;;;73.35;22.30;;;;;;;-1.74;100.00;98412.25;3149358;23;20039;-92
2023/12/08 00:25:06;;;;;;;80.20;21.75;;;;;;;-1.66;100.00;98409.81;3159448;23;20594;-92
2023/12/08 00:26:22;;;;;;;69.57;19.60;;;;;;;-1.61;100.00;98406.53;3168653;23;20032;-91
2023/12/08 00:27:37;;;;;;;61.88;19.00;;;;;;;-1.75;100.00;98402.81;3153138;23;20026;-92
2023/12/08 00:28:53;;;;;;;45.45;18.48;;;;;;;-1.61;100.00;98393.69;3144404;23;20034;-92
2023/12/08 00:30:09;;;;;;;54.30;20.52;;;;;;;-1.47;100.00;98390.53;3139355;23;20054;-93
2023/12/08 00:31:24;;;;;;;45.22;19.67;;;;;;;-1.34;100.00;98386.47;3144605;23;20026;-92
2023/12/08 00:32:40;;;;;;;60.78;20.75;;;;;;;-1.33;100.00;98383.94;3159584;23;20030;-92
2023/12/08 00:33:56;;;;;;;70.63;21.08;;;;;;;-1.47;100.00;98369.97;3148550;23;20027;-93
2023/12/08 00:35:12;;;;;;;59.95;20.80;;;;;;;-1.61;100.00;98374.84;3144715;23;20460;-92
2023/12/08 00:36:28;;;;;;;78.60;20.25;;;;;;;-1.66;100.00;98376.47;3124546;23;20026;-92
2023/12/08 00:37:44;;;;;;;52.45;19.02;;;;;;;-2.07;100.00;98369.66;3136130;23;20022;-94
2023/12/08 00:38:59;;;;;;;59.50;19.50;;;;;;;-2.13;100.00;98372.94;3145639;23;20023;-91
2023/12/08 00:40:16;;;;;;;61.63;20.67;;;;;;;-2.27;100.00;98378.63;3140629;23;20030;-92
2023/12/08 00:41:32;;;;;;;65.45;20.38;;;;;;;-1.92;100.00;98369.97;3154197;23;20410;-92
2023/12/08 00:42:47;;;;;;;66.00;18.52;;;;;;;-1.87;100.00;98363.22;3133150;23;20019;-91
2023/12/08 00:44:03;;;;;;;50.58;15.65;;;;;;;-1.97;100.00;98373.28;3150155;23;20025;-92
2023/12/08 00:45:19;;;;;;;52.10;17.08;;;;;;;-1.98;100.00;98369.81;3153101;23;20046;-92
2023/12/08 00:46:35;;;;;;;41.95;15.75;;;;;;;-2.00;100.00;98367.25;3143865;23;20026;-91
2023/12/08 00:47:50;;;;;;;56.80;17.70;;;;;;;-2.05;100.00;98367.97;3154297;23;20481;-92
2023/12/08 00:49:06;;;;;;;43.90;16.35;;;;;;;-2.13;100.00;98371.22;3153227;23;20029;-92
2023/12/08 00:50:21;;;;;;;48.17;17.25;;;;;;;-1.96;100.00;98373.28;3153317;23;20542;-92
2023/12/08 00:51:37;;;;;;;64.85;18.23;;;;;;;-2.00;100.00;98372.38;3144128;23;20108;-91
2023/12/08 00:52:53;;;;;;;57.63;18.48;;;;;;;-2.06;100.00;98374.78;3139417;23;20026;-93
2023/12/08 00:54:08;;;;;;;46.60;17.10;;;;;;;-2.20;100.00;98378.75;3144076;23;20022;-93
2023/12/08 00:55:24;;;;;;;65.28;18.17;;;;;;;-2.15;100.00;98377.19;3139538;23;20027;-91
2023/12/08 00:56:40;;;;;;;71.78;18.05;;;;;;;-2.45;100.00;98379.09;3143739;23;20045;-92
2023/12/08 00:57:55;;;;;;;71.13;18.50;;;;;;;-2.33;100.00;98375.06;3159859;23;20026;-92
2023/12/08 00:59:11;;;;;;;79.75;18.85;;;;;;;-2.23;100.00;98371.88;3153246;23;20106;-91
2023/12/08 01:00:27;;;;;;;44.50;17.77;;;;;;;-2.27;100.00;98378.63;3154859;23;20080;-91
2023/12/08 01:01:42;;;;;;;59.67;18.80;;;;;;;-2.22;100.00;98378.75;3153366;23;20018;-92
2023/12/08 01:02:59;;;;;;;53.20;18.25;;;;;;;-2.21;100.00;98370.22;3144307;23;20026;-92
2023/12/08 01:04:14;;;;;;;56.88;19.08;;;;;;;-2.31;100.00;98379.38;3139091;23;20022;-92
2023/12/08 01:05:30;;;;;;;57.15;20.55;;;;;;;-2.42;100.00;98373.16;3154619;23;20085;-92
2023/12/08 01:06:48;;;;;;;45.65;19.35;;;;;;;-2.51;100.00;98378.06;3153017;23;20029;-94
2023/12/08 01:08:05;;;;;;;58.15;17.58;;;;;;;-2.45;100.00;98376.53;3145348;23;20022;-92
2023/12/08 01:09:20;;;;;;;46.60;17.73;;;;;;;-2.60;100.00;98368.47;3155251;23;20018;-91
2023/12/08 01:10:36;;;;;;;49.83;16.60;;;;;;;-2.66;100.00;98376.88;3154750;23;20078;-92
2023/12/08 01:11:52;;;;;;;54.65;15.25;;;;;;;-2.63;100.00;98378.66;3149393;23;20022;-92
2023/12/08 01:13:07;;;;;;;49.97;17.02;;;;;;;-2.71;100.00;98365.66;3163241;23;20104;-91
2023/12/08 01:14:23;;;;;;;67.40;18.92;;;;;;;-2.53;100.00;98360.06;3159085;23;20463;-92
2023/12/08 01:15:39;;;;;;;66.97;18.73;;;;;;;-2.41;100.00;98364.63;3147082;23;20027;-93
2023/12/08 01:16:55;;;;;;;62.92;19.25;;;;;;;-2.34;100.00;98360.50;3145793;23;20038;-93
2023/12/08 01:18:11;;;;;;;77.72;21.52;;;;;;;-2.19;100.00;98355.72;3140492;23;20026;-92
2023/12/08 01:19:27;;;;;;;81.75;21.58;;;;;;;-2.07;100.00;98351.69;3140804;23;20018;-93
2023/12/08 01:20:42;;;;;;;63.10;19.63;;;;;;;-2.21;100.00;98352.25;3141034;23;20019;-92
2023/12/08 01:21:58;;;;;;;83.20;22.42;;;;;;;-2.10;100.00;98349.91;3146054;23;20415;-92
2023/12/08 01:23:14;;;;;;;88.10;22.20;;;;;;;-2.09;100.00;98340.53;3125731;23;20455;-92
2023/12/08 01:24:29;;;;;;;61.53;20.50;;;;;;;-2.50;100.00;98344.78;3137174;23;20033;-92
2023/12/08 01:25:45;;;;;;;75.95;20.20;;;;;;;-2.78;100.00;98348.41;3140073;23;20033;-92
2023/12/08 01:27:01;;;;;;;85.18;22.30;;;;;;;-2.84;100.00;98346.56;3161349;23;20021;-92
2023/12/08 01:28:16;;;;;;;85.10;23.13;;;;;;;-2.96;100.00;98343.69;3149469;23;20029;-92
2023/12/08 01:29:32;;;;;;;109.70;25.95;;;;;;;-2.85;100.00;98342.25;3155077;23;20460;-93
2023/12/08 01:30:48;;;;;;;88.82;23.60;;;;;;;-2.91;100.00;98350.66;3169734;23;20076;-92
2023/12/08 01:32:04;;;;;;;83.72;23.42;;;;;;;-2.96;100.00;98342.00;3165078;23;20464;-90
2023/12/08 01:33:20;;;;;;;73.57;22.50;;;;;;;-3.09;100.00;98338.25;3148851;23;20033;-90
2023/12/08 01:34:36;;;;;;;80.15;22.20;;;;;;;-3.18;100.00;98343.16;3154414;23;20022;-92
2023/12/08 01:35:51;;;;;;;81.22;22.58;;;;;;;-3.19;100.00;98337.16;3140309;23;20018;-91
2023/12/08 01:37:07;;;;;;;74.95;21.63;;;;;;;-3.13;100.00;98341.59;3145262;23;20022;-92
2023/12/08 01:38:22;;;;;;;73.43;23.35;;;;;;;-3.09;100.00;98329.72;3140251;23;20032;-93
2023/12/08 01:39:38;;;;;;;63.80;22.30;;;;;;;-3.00;100.00;98323.13;3160664;23;20357;-94
2023/12/08 01:40:54;;;;;;;60.15;22.05;;;;;;;-2.96;100.00;98316.38;3154559;23;20085;-92
2023/12/08 01:42:10;;;;;;;66.32;23.52;;;;;;;-2.97;100.00;98314.66;3144860;23;20537;-91
2023/12/08 01:43:25;;;;;;;72.97;24.83;;;;;;;-2.87;100.00;98318.31;3159941;23;20029;-92
2023/12/08 01:44:41;;;;;;;69.40;23.48;;;;;;;-2.76;100.00;98319.44;3154663;23;20026;-92
2023/12/08 01:45:58;;;;;;;70.90;24.25;;;;;;;-2.58;100.00;98318.09;3144881;23;20022;-93
2023/12/08 01:47:14;;;;;;;79.20;24.77;;;;;;;-2.32;100.00;98317.81;3140090;23;20101;-92
2023/12/08 01:48:30;;;;;;;83.43;26.58;;;;;;;-2.25;100.00;98316.25;3144887;23;20033;-92
2023/12/08 01:49:45;;;;;;;67.18;22.80;;;;;;;-2.20;100.00;98317.22;3139316;23;20015;-92
2023/12/08 01:51:03;;;;;;;75.35;22.20;;;;;;;-2.25;100.00;98319.66;3145045;23;20041;-92
2023/12/08 01:52:23;;;;;;;85.00;24.73;;;;;;;-2.19;100.00;98324.94;3145363;23;20074;-92
2023/12/08 01:53:41;;;;;;;72.35;23.13;;;;;;;-2.11;100.00;98327.66;3145732;23;20018;-92
2023/12/08 01:54:59;;;;;;;59.50;20.67;;;;;;;-2.53;100.00;98331.03;3140112;23;20030;-91
2023/12/08 01:56:15;;;;;;;66.97;22.02;;;;;;;-2.33;100.00;98323.78;3145975;23;20462;-92
2023/12/08 01:57:31;;;;;;;54.35;19.63;;;;;;;-2.13;100.00;98319.09;3140986;23;20077;-91
2023/12/08 01:58:46;;;;;;;48.90;19.17;;;;;;;-2.13;100.00;98324.22;3155671;23;20430;-91
2023/12/08 02:00:03;;;;;;;48.83;19.52;;;;;;;-2.52;100.00;98320.78;3154349;23;20026;-92
2023/12/08 02:01:25;;;;;;;60.92;21.50;;;;;;;-2.78;100.00;98318.53;3155492;23;20029;-92
2023/12/08 02:03:03;;;;;;;84.95;21.90;;;;;;;-2.59;100.00;98319.78;3154511;23;20164;-91
2023/12/08 02:04:28;;;;;;;80.90;21.67;;;;;;;-2.53;100.00;98316.50;3162581;23;20014;-91
2023/12/08 02:05:50;;;;;;;88.00;22.65;;;;;;;-2.48;100.00;98314.03;3154519;23;20050;-92
2023/12/08 02:07:06;;;;;;;77.95;23.35;;;;;;;-2.60;100.00;98306.97;3146563;23;20026;-91
2023/12/08 02:08:22;;;;;;;92.60;24.05;;;;;;;-2.45;100.00;98311.53;3140582;23;20018;-91
2023/12/08 02:09:38;;;;;;;80.50;21.73;;;;;;;-2.37;100.00;98310.03;3140320;23;20022;-90
2023/12/08 02:10:54;;;;;;;83.70;22.20;;;;;;;-2.33;100.00;98316.94;3160858;23;20056;-91
2023/12/08 02:12:10;;;;;;;69.03;19.48;;;;;;;-2.39;100.00;98315.94;3154303;23;20026;-91
2023/12/08 02:13:25;;;;;;;57.22;19.65;;;;;;;-2.57;100.00;98315.59;3145514;23;20038;-90
2023/12/08 02:14:41;;;;;;;95.47;23.17;;;;;;;-2.39;100.00;98315.94;3160029;23;20025;-90
2023/12/08 02:16:05;;;;;;;71.30;21.00;;;;;;;-2.39;100.00;98313.38;3149044;23;20022;-90
2023/12/08 02:17:24;;;;;;;88.03;23.08;;;;;;;-2.29;100.00;98312.75;3146995;23;20060;-90
2023/12/08 02:18:40;;;;;;;54.35;20.38;;;;;;;-2.27;100.00;98319.66;3156098;23;20030;-90
2023/12/08 02:19:56;;;;;;;118.05;24.15;;;;;;;-2.19;100.00;98318.94;3148528;23;20033;-91
2023/12/08 02:21:13;;;;;;;84.82;24.33;;;;;;;-2.23;100.00;98317.16;3145225;23;20070;-90
2023/12/08 02:22:29;;;;;;;80.95;20.67;;;;;;;-2.24;100.00;98312.84;3125740;23;20083;-90
2023/12/08 02:23:48;;;;;;;51.67;18.58;;;;;;;-2.52;100.00;98319.94;3139646;23;20046;-90
2023/12/08 02:25:04;;;;;;;52.63;18.27;;;;;;;-2.72;100.00;98328.91;3161576;23;20342;-90
2023/12/08 02:26:20;;;;;;;49.35;15.43;;;;;;;-2.66;100.00;98323.06;3149006;23;20018;-92
2023/12/08 02:27:36;;;;;;;75.25;19.20;;;;;;;-2.44;100.00;98321.84;3139818;23;20022;-90
2023/12/08 02:28:52;;;;;;;76.57;19.33;;;;;;;-2.47;100.00;98319.22;3154728;23;20406;-91
2023/12/08 02:30:09;;;;;;;64.28;17.92;;;;;;;-2.36;100.00;98327.13;3153828;23;20018;-89
2023/12/08 02:31:29;;;;;;;86.40;18.60;;;;;;;-2.32;100.00;98320.38;3140020;23;20097;-91
2023/12/08 02:33:03;;;;;;;67.63;19.65;;;;;;;-2.28;100.00;98322.16;3156587;23;20026;-90
2023/12/08 02:34:21;;;;;;;85.43;18.17;;;;;;;-2.34;100.00;98319.50;3133976;23;20022;-90
2023/12/08 02:35:40;;;;;;;65.40;19.23;;;;;;;-2.47;100.00;98324.34;3153119;23;20065;-92
2023/12/08 02:36:59;;;;;;;51.38;18.27;;;;;;;-2.37;100.00;98322.84;3154080;23;20050;-90
2023/12/08 02:38:19;;;;;;;79.50;20.10;;;;;;;-2.45;100.00;98317.53;3145635;23;20553;-91
2023/12/08 02:39:36;;;;;;;90.72;21.00;;;;;;;-2.55;100.00;98320.72;3155859;23;20538;-90
2023/12/08 02:40:53;;;;;;;84.70;19.50;;;;;;;-2.39;100.00;98316.81;3169484;23;20355;-90
2023/12/08 02:42:08;;;;;;;51.67;16.02;;;;;;;-2.76;100.00;98324.56;3153949;23;20093;-90
2023/12/08 02:43:24;;;;;;;86.85;18.70;;;;;;;-2.89;100.00;98325.94;3140114;23;20022;-90
2023/12/08 02:44:40;;;;;;;73.40;17.17;;;;;;;-2.61;100.00;98320.59;3145391;23;20022;-91
2023/12/08 02:45:55;;;;;;;77.55;17.73;;;;;;;-2.66;100.00;98317.06;3140218;23;20026;-91
2023/12/08 02:47:11;;;;;;;47.42;15.70;;;;;;;-2.92;100.00;98319.91;3139872;23;20414;-90
2023/12/08 02:48:27;;;;;;;50.10;14.98;;;;;;;-3.19;100.00;98320.97;3139995;23;20030;-91
2023/12/08 02:49:42;;;;;;;50.90;15.88;;;;;;;-3.01;100.00;98318.84;3159684;23;20029;-91
2023/12/08 02:50:58;;;;;;;53.13;16.00;;;;;;;-2.95;100.00;98307.00;3153696;23;20450;-90
2023/12/08 02:52:14;;;;;;;64.80;16.77;;;;;;;-3.03;100.00;98304.25;3160426;23;20069;-91
2023/12/08 02:53:29;;;;;;;56.85;16.95;;;;;;;-3.48;100.00;98298.91;3153911;23;20022;-92
2023/12/08 02:54:45;;;;;;;42.60;15.77;;;;;;;-3.56;100.00;98293.59;3140964;23;20033;-91
2023/12/08 02:56:01;;;;;;;57.83;19.08;;;;;;;-3.61;100.00;98290.03;3140107;23;20074;-91
2023/12/08 02:57:16;;;;;;;47.38;17.40;;;;;;;-3.78;100.00;98292.16;3155348;23;20022;-91
2023/12/08 02:58:32;;;;;;;63.53;17.83;;;;;;;-3.48;100.00;98286.09;3153998;23;20407;-91
2023/12/08 02:59:48;;;;;;;57.08;17.80;;;;;;;-3.36;100.00;98287.25;3145366;23;20089;-90
2023/12/08 03:01:04;;;;;;;43.17;16.63;;;;;;;-3.15;100.00;98287.75;3145488;23;20399;-91
2023/12/08 03:02:19;;;;;;;58.78;18.92;;;;;;;-3.24;100.00;98287.56;3154157;23;20348;-91
2023/12/08 03:03:35;;;;;;;58.47;18.35;;;;;;;-3.14;100.00;98276.72;3152103;23;20025;-91
2023/12/08 03:04:50;;;;;;;48.13;17.75;;;;;;;-3.05;100.00;98270.94;3166971;23;20073;-91
2023/12/08 03:06:06;;;;;;;64.43;19.55;;;;;;;-3.11;100.00;98265.66;3160470;23;20044;-92
2023/12/08 03:07:22;;;;;;;41.83;18.33;;;;;;;-3.15;100.00;98261.28;3145592;23;20018;-91
2023/12/08 03:08:38;;;;;;;46.25;17.30;;;;;;;-3.17;100.00;98261.25;3140528;23;20026;-91
2023/12/08 03:09:54;;;;;;;41.90;17.40;;;;;;;-3.06;100.00;98256.41;3160774;23;20085;-91
2023/12/08 03:11:09;;;;;;;41.80;17.10;;;;;;;-2.99;100.00;98253.13;3154555;23;20025;-91
2023/12/08 03:12:27;;;;;;;33.40;15.60;;;;;;;-3.34;100.00;98252.31;3145276;23;20209;-91
2023/12/08 03:13:42;;;;;;;38.35;17.23;;;;;;;-3.37;100.00;98247.13;3156002;23;20110;-91
2023/12/08 03:14:58;;;;;;;38.67;15.70;;;;;;;-3.41;100.00;98251.28;3149352;23;20032;-91
2023/12/08 03:16:13;;;;;;;37.78;16.23;;;;;;;-3.41;100.00;98244.47;3145464;23;20042;-91
2023/12/08 03:17:29;;;;;;;38.25;15.80;;;;;;;-3.39;100.00;98246.22;3160756;23;20029;-92
2023/12/08 03:18:45;;;;;;;39.90;15.20;;;;;;;-3.44;100.00;98244.38;3149165;23;20097;-92
2023/12/08 03:20:01;;;;;;;35.00;15.20;;;;;;;-3.30;100.00;98246.41;3142925;23;20544;-91
2023/12/08 03:21:21;;;;;;;41.15;16.17;;;;;;;-3.34;100.00;98245.50;3145220;23;20033;-91
2023/12/08 03:22:37;;;;;;;35.75;15.13;;;;;;;-3.52;100.00;98247.59;3140600;23;20014;-91
2023/12/08 03:23:53;;;;;;;43.15;16.50;;;;;;;-3.65;100.00;98251.53;3160721;23;20094;-91
2023/12/08 03:25:08;;;;;;;43.75;15.88;;;;;;;-3.96;100.00;98246.47;3149297;23;20022;-93
2023/12/08 03:26:24;;;;;;;42.55;15.02;;;;;;;-3.80;100.00;98254.56;3140753;23;20112;-91
2023/12/08 03:27:40;;;;;;;36.25;15.10;;;;;;;-4.04;100.00;98248.81;3155436;23;20029;-90
2023/12/08 03:28:55;;;;;;;40.70;15.07;;;;;;;-3.92;100.00;98260.22;3153454;23;20454;-90
2023/12/08 03:30:13;;;;;;;47.97;15.63;;;;;;;-3.89;100.00;98256.06;3145211;23;20471;-90
2023/12/08 03:31:31;;;;;;;35.85;13.80;;;;;;;-4.12;100.00;98257.97;3145010;23;20026;-91
2023/12/08 03:32:46;;;;;;;39.83;15.20;;;;;;;-4.18;100.00;98255.25;3161051;23;20567;-92
2023/12/08 03:34:02;;;;;;;38.70;14.43;;;;;;;-4.18;100.00;98252.69;3153750;23;20033;-91
2023/12/08 03:35:20;;;;;;;32.58;13.60;;;;;;;-4.06;100.00;98247.94;3160319;23;20178;-91
2023/12/08 03:36:36;;;;;;;37.92;15.05;;;;;;;-3.98;100.00;98243.00;3153774;23;20477;-91
2023/12/08 03:37:52;;;;;;;34.67;14.02;;;;;;;-4.65;100.00;98230.06;3155295;23;20022;-91
2023/12/08 03:39:07;;;;;;;36.75;14.68;;;;;;;-4.56;100.00;98218.44;3148490;23;20082;-91
2023/12/08 03:40:23;;;;;;;29.27;11.57;;;;;;;-4.55;100.00;98198.88;3154290;23;20026;-90
2023/12/08 03:41:38;;;;;;;35.05;15.48;;;;;;;-4.42;100.00;98200.94;3144940;23;20022;-90
2023/12/08 03:42:54;;;;;;;37.25;15.40;;;;;;;-4.48;100.00;98185.44;3145066;23;20528;-90
2023/12/08 03:44:09;;;;;;;28.83;13.23;;;;;;;-4.23;100.00;98192.91;3124972;23;20023;-91
2023/12/08 03:45:26;;;;;;;39.83;14.90;;;;;;;-4.09;100.00;98183.03;3144970;23;20033;-90
2023/12/08 03:46:44;;;;;;;37.70;14.23;;;;;;;-4.05;100.00;98178.06;3144904;23;20517;-91
2023/12/08 03:47:59;;;;;;;33.92;14.20;;;;;;;-3.98;100.00;98163.75;3140647;23;20804;-90
2023/12/08 03:49:15;;;;;;;36.22;14.20;;;;;;;-4.20;100.00;98155.50;3144724;23;20101;-90
2023/12/08 03:50:31;;;;;;;32.67;13.68;;;;;;;-4.12;100.00;98151.47;3139656;23;20545;-90
2023/12/08 03:51:46;;;;;;;28.10;12.52;;;;;;;-4.16;100.00;98141.13;3144780;23;20458;-91
2023/12/08 03:53:02;;;;;;;37.78;14.40;;;;;;;-4.01;100.00;98150.88;3140268;23;20033;-91
2023/12/08 03:54:18;;;;;;;37.42;14.05;;;;;;;-3.95;100.00;98148.47;3141736;23;20023;-91
2023/12/08 03:55:33;;;;;;;38.60;14.80;;;;;;;-3.88;100.00;98152.91;3145177;23;20469;-91
2023/12/08 03:56:49;;;;;;;29.92;13.48;;;;;;;-4.34;100.00;98154.28;3156800;23;20049;-91
2023/12/08 03:58:05;;;;;;;38.47;15.85;;;;;;;-4.27;100.00;98158.72;3134073;23;20015;-91
2023/12/08 03:59:20;;;;;;;42.80;13.85;;;;;;;-4.58;100.00;98163.88;3136120;23;20036;-91
2023/12/08 04:00:36;;;;;;;42.60;15.13;;;;;;;-4.27;100.00;98166.41;3140029;23;20029;-92
2023/12/08 04:01:53;;;;;;;40.30;13.05;;;;;;;-4.61;100.00;98162.91;3144852;23;20030;-91
2023/12/08 04:03:08;;;;;;;39.97;13.90;;;;;;;-4.53;100.00;98174.22;3145750;23;20098;-91
2023/12/08 04:04:24;;;;;;;39.08;14.65;;;;;;;-4.80;100.00;98167.50;3145262;23;20026;-92
2023/12/08 04:05:40;;;;;;;45.28;14.15;;;;;;;-4.71;100.00;98162.69;3159788;23;20795;-91
2023/12/08 04:06:56;;;;;;;46.55;15.65;;;;;;;-4.70;100.00;98164.41;3169454;23;20036;-92
2023/12/08 04:08:12;;;;;;;38.92;15.18;;;;;;;-4.74;100.00;98164.28;3154130;23;20424;-91
2023/12/08 04:09:29;;;;;;;38.35;14.05;;;;;;;-4.72;100.00;98160.06;3159723;23;20021;-91
2023/12/08 04:10:45;;;;;;;32.85;14.20;;;;;;;-4.66;100.00;98167.03;3148805;23;20026;-92
2023/12/08 04:12:01;;;;;;;36.28;15.27;;;;;;;-4.48;100.00;98161.59;3153595;23;20026;-90
2023/12/08 04:13:16;;;;;;;35.20;14.00;;;;;;;-4.50;100.00;98176.84;3139513;23;20029;-90
2023/12/08 04:14:32;;;;;;;35.33;14.48;;;;;;;-4.33;100.00;98182.44;3144731;23;20022;-90
2023/12/08 04:15:49;;;;;;;34.42;12.43;;;;;;;-4.42;100.00;98185.63;3159542;23;20018;-91
2023/12/08 04:17:05;;;;;;;36.97;14.60;;;;;;;-4.42;100.00;98180.50;3149076;23;20390;-91
2023/12/08 04:18:20;;;;;;;33.05;13.75;;;;;;;-4.32;100.00;98180.75;3141850;23;20378;-91
2023/12/08 04:19:37;;;;;;;31.35;13.27;;;;;;;-4.36;100.00;98179.81;3144392;23;20110;-91
2023/12/08 04:20:52;;;;;;;34.15;14.00;;;;;;;-4.31;100.00;98174.81;3140210;23;20018;-91
2023/12/08 04:22:08;;;;;;;36.05;14.23;;;;;;;-4.43;100.00;98178.78;3144292;23;20320;-91
2023/12/08 04:23:24;;;;;;;34.63;14.43;;;;;;;-4.28;100.00;98180.00;3139990;23;20022;-92
2023/12/08 04:24:40;;;;;;;37.70;14.15;;;;;;;-4.49;100.00;98180.28;3145314;23;20526;-90
2023/12/08 04:25:55;;;;;;;34.53;14.45;;;;;;;-4.44;100.00;98184.72;3144361;23;20026;-91
2023/12/08 04:27:11;;;;;;;29.38;12.32;;;;;;;-4.64;100.00;98181.59;3144796;23;20513;-91
2023/12/08 04:28:27;;;;;;;35.50;13.57;;;;;;;-4.70;100.00;98179.72;3154331;23;20320;-91
2023/12/08 04:29:42;;;;;;;36.28;14.45;;;;;;;-4.46;100.00;98186.38;3153672;23;20041;-91
2023/12/08 04:30:58;;;;;;;37.10;14.63;;;;;;;-4.45;100.00;98182.97;3154899;23;20045;-90
2023/12/08 04:32:14;;;;;;;33.67;14.77;;;;;;;-4.51;100.00;98177.69;3164454;23;20072;-91
2023/12/08 04:33:29;;;;;;;29.52;13.18;;;;;;;-4.57;100.00;98182.63;3154140;23;20030;-90
2023/12/08 04:34:45;;;;;;;37.10;13.57;;;;;;;-4.53;100.00;98179.34;3153643;23;20046;-90
2023/12/08 04:36:01;;;;;;;30.73;13.43;;;;;;;-4.50;100.00;98191.34;3160156;23;20451;-91
2023/12/08 04:37:16;;;;;;;30.67;13.40;;;;;;;-4.44;100.00;98191.50;3153436;23;20462;-90
2023/12/08 04:38:32;;;;;;;32.90;12.98;;;;;;;-4.65;100.00;98196.88;3144603;23;20026;-90
2023/12/08 04:39:47;;;;;;;30.90;12.55;;;;;;;-4.58;100.00;98197.09;3144418;23;20018;-91
2023/12/08 04:41:03;;;;;;;23.90;11.02;;;;;;;-4.66;100.00;98196.03;3144661;23;20023;-91
2023/12/08 04:42:19;;;;;;;31.83;12.27;;;;;;;-4.44;100.00;98196.59;3139088;23;20078;-91
2023/12/08 04:43:34;;;;;;;28.00;11.95;;;;;;;-4.85;100.00;98200.56;3125006;23;20022;-91
2023/12/08 04:44:50;;;;;;;30.75;11.63;;;;;;;-4.81;100.00;98188.75;3151306;23;20072;-90
2023/12/08 04:46:06;;;;;;;29.23;11.43;;;;;;;-4.91;100.00;98196.97;3134440;23;20562;-92
2023/12/08 04:47:21;;;;;;;28.27;10.45;;;;;;;-4.61;100.00;98198.69;3136905;23;20026;-91
2023/12/08 04:48:37;;;;;;;22.90;9.23;;;;;;;-4.41;100.00;98197.56;3140039;23;20337;-91
2023/12/08 04:49:52;;;;;;;22.42;9.65;;;;;;;-4.34;100.00;98197.72;3155028;23;20044;-91
2023/12/08 04:51:08;;;;;;;22.23;9.07;;;;;;;-4.37;100.00;98197.66;3169882;23;20022;-91
2023/12/08 04:52:23;;;;;;;22.98;9.18;;;;;;;-4.16;100.00;98203.34;3169570;23;20101;-90
2023/12/08 04:53:40;;;;;;;17.85;7.85;;;;;;;-4.07;100.00;98194.19;3165385;23;20161;-92
2023/12/08 04:54:55;;;;;;;16.02;7.40;;;;;;;-4.15;100.00;98196.53;3153218;23;20022;-92
2023/12/08 04:56:11;;;;;;;24.05;10.30;;;;;;;-4.60;100.00;98203.84;3147516;23;20022;-92
2023/12/08 04:57:26;;;;;;;25.27;9.93;;;;;;;-4.73;100.00;98200.09;3156323;23;20378;-92
2023/12/08 04:58:42;;;;;;;25.02;10.88;;;;;;;-4.45;100.00;98202.53;3155142;23;20026;-93
2023/12/08 04:59:58;;;;;;;26.98;10.43;;;;;;;-4.70;100.00;98200.16;3140603;23;20046;-93
2023/12/08 05:01:14;;;;;;;27.08;9.98;;;;;;;-4.67;100.00;98189.19;3154476;23;20029;-92
2023/12/08 05:02:30;;;;;;;27.10;11.75;;;;;;;-4.52;100.00;98186.19;3155651;23;20058;-91
2023/12/08 05:03:45;;;;;;;26.70;12.02;;;;;;;-4.60;100.00;98177.44;3149867;23;20027;-91
2023/12/08 05:05:01;;;;;;;25.85;10.50;;;;;;;-4.63;100.00;98170.56;3140907;23;20022;-91
2023/12/08 05:06:17;;;;;;;24.73;10.18;;;;;;;-4.56;100.00;98166.47;3140697;23;20454;-93
2023/12/08 05:07:33;;;;;;;29.48;11.50;;;;;;;-4.51;100.00;98162.34;3125651;23;20029;-92
2023/12/08 05:08:48;;;;;;;26.48;11.10;;;;;;;-4.58;100.00;98156.22;3136067;23;20093;-93
2023/12/08 05:10:05;;;;;;;27.20;10.93;;;;;;;-4.72;100.00;98157.50;3154967;23;20044;-91
2023/12/08 05:11:20;;;;;;;26.55;10.65;;;;;;;-4.43;100.00;98152.34;3164702;23;20450;-92
2023/12/08 05:12:36;;;;;;;22.92;9.80;;;;;;;-4.30;100.00;98154.41;3149118;23;20030;-91
2023/12/08 05:13:52;;;;;;;23.00;9.85;;;;;;;-4.24;100.00;98156.25;3140192;23;20022;-92
2023/12/08 05:15:08;;;;;;;22.15;9.23;;;;;;;-4.37;100.00;98151.63;3140252;23;20029;-92
2023/12/08 05:16:24;;;;;;;21.08;9.25;;;;;;;-4.31;100.00;98154.38;3155938;23;20027;-94
2023/12/08 05:17:40;;;;;;;20.08;9.32;;;;;;;-4.29;100.00;98153.56;3149905;23;20022;-92
2023/12/08 05:18:55;;;;;;;26.20;10.32;;;;;;;-4.17;100.00;98154.72;3140486;23;20023;-93
2023/12/08 05:20:12;;;;;;;23.83;10.10;;;;;;;-4.21;100.00;98156.31;3143137;23;20490;-93
2023/12/08 05:21:28;;;;;;;26.60;12.27;;;;;;;-4.28;100.00;98169.78;3146017;23;20033;-92
2023/12/08 05:22:43;;;;;;;29.45;12.57;;;;;;;-4.48;100.00;98180.31;3140816;23;20041;-92
2023/12/08 05:24:05;;;;;;;30.05;12.68;;;;;;;-4.76;100.00;98165.91;3141242;23;20042;-93
2023/12/08 05:25:21;;;;;;;24.13;11.38;;;;;;;-5.00;100.00;98170.38;3142106;23;20034;-92
2023/12/08 05:26:37;;;;;;;25.23;10.82;;;;;;;-4.73;100.00;98171.09;3140918;23;20018;-93
2023/12/08 05:27:53;;;;;;;23.48;11.63;;;;;;;-4.94;100.00;98171.34;3140725;23;20530;-91
2023/12/08 05:29:08;;;;;;;25.08;12.13;;;;;;;-4.87;100.00;98169.03;3146275;23;20046;-93
2023/12/08 05:30:23;;;;;;;30.58;12.38;;;;;;;-4.97;100.00;98164.47;3140874;23;20019;-92
2023/12/08 05:31:39;;;;;;;25.48;11.68;;;;;;;-4.79;100.00;98155.63;3155900;23;20155;-93
2023/12/08 05:32:55;;;;;;;25.30;11.70;;;;;;;-5.16;100.00;98166.47;3150317;23;20026;-92
2023/12/08 05:34:10;;;;;;;27.42;11.63;;;;;;;-5.18;100.00;98165.56;3141389;23;20026;-93
2023/12/08 05:35:26;;;;;;;27.63;13.23;;;;;;;-5.00;100.00;98160.16;3141209;23;20053;-93
2023/12/08 05:36:42;;;;;;;29.83;12.43;;;;;;;-4.86;100.00;98165.63;3146119;23;20018;-93
2023/12/08 05:37:57;;;;;;;27.52;11.80;;;;;;;-5.00;100.00;98161.81;3146156;23;20037;-92
2023/12/08 05:39:14;;;;;;;28.08;11.50;;;;;;;-4.81;100.00;98153.00;3140474;23;20018;-93
2023/12/08 05:40:31;;;;;;;25.88;10.43;;;;;;;-4.93;100.00;98152.66;3141581;23;20030;-93
2023/12/08 05:41:46;;;;;;;22.52;11.23;;;;;;;-5.19;100.00;98151.06;3155725;23;20466;-93
2023/12/08 05:43:03;;;;;;;25.05;11.10;;;;;;;-5.01;100.00;98153.31;3163696;23;20033;-92
2023/12/08 05:44:20;;;;;;;27.52;11.60;;;;;;;-4.84;100.00;98148.66;3141013;23;20030;-93
2023/12/08 05:45:35;;;;;;;29.55;11.40;;;;;;;-5.05;100.00;98159.13;3140902;23;20026;-92
2023/12/08 05:46:51;;;;;;;29.02;12.52;;;;;;;-4.86;100.00;98168.19;3140581;23;20046;-94